Time;durP1;ratioP1;P1;durP2;ratioP2;P2;SDS_P1;SDS_P2;PMS_P1;PMS_P2;Temp;Humidity;BMP_temperature;BMP_pressure;BME280_temperature;BME280_humidity;BME280_pressure;Samples;Min_cycle;Max_cycle;Signal;HPM_P1;HPM_P2
2024/01/04 00:03:57;;;;;;;23.85;11.82;;;;;;;21.21;58.79;98836.03;41199815;28;20637;-72
2024/01/04 00:24:00;;;;;;;22.63;10.25;;;;;;;21.20;58.96;98835.22;41281981;28;20057;-69
2024/01/04 00:44:00;;;;;;;23.80;9.98;;;;;;;21.16;58.85;98828.59;41365766;28;20453;-69
2024/01/04 01:04:01;;;;;;;17.35;9.10;;;;;;;21.15;58.73;98819.03;41363538;28;20120;-70
2024/01/04 01:24:02;;;;;;;17.55;8.55;;;;;;;21.10;58.67;98787.97;41369698;28;20181;-70
2024/01/04 01:44:02;;;;;;;15.45;8.10;;;;;;;21.05;58.85;98786.78;41344826;28;20141;-69
2024/01/04 02:04:03;;;;;;;14.75;7.45;;;;;;;21.03;58.70;98829.03;41378799;28;20046;-69
2024/01/04 02:24:05;;;;;;;11.90;6.63;;;;;;;20.98;58.72;98807.59;41368096;28;20061;-69
2024/01/04 02:44:05;;;;;;;12.93;6.45;;;;;;;20.98;58.48;98786.56;41362050;28;20125;-71
2024/01/04 03:04:05;;;;;;;10.88;5.15;;;;;;;20.96;58.11;98835.91;41358102;28;20054;-69
2024/01/04 03:24:06;;;;;;;10.98;5.50;;;;;;;20.91;58.67;98822.34;41354136;28;20038;-69
2024/01/04 03:44:06;;;;;;;9.02;5.07;;;;;;;20.92;58.08;98795.06;41359763;28;20073;-69
2024/01/04 04:04:07;;;;;;;7.10;4.57;;;;;;;20.88;58.41;98781.41;41347293;28;20070;-69
2024/01/04 04:24:07;;;;;;;7.68;4.75;;;;;;;20.87;57.66;98781.56;41351497;28;20061;-69
2024/01/04 04:44:08;;;;;;;6.63;4.28;;;;;;;20.81;58.33;98835.63;41351215;28;20108;-69
2024/01/04 05:04:09;;;;;;;5.50;3.72;;;;;;;20.81;58.04;98800.59;41344801;28;20546;-72
2024/01/04 05:24:09;;;;;;;8.20;3.45;;;;;;;21.01;59.04;98793.34;41356337;28;20121;-75
2024/01/04 05:44:09;;;;;;;7.72;4.10;;;;;;;21.57;58.19;98818.28;41387113;28;20038;-72
2024/01/04 06:04:13;;;;;;;7.68;3.78;;;;;;;21.63;56.72;98858.13;41384974;28;20055;-74
2024/01/04 06:24:13;;;;;;;7.15;4.20;;;;;;;21.25;56.41;98864.53;41379500;28;20046;-68
2024/01/04 06:44:15;;;;;;;6.07;3.60;;;;;;;21.48;56.65;98863.97;41288068;28;20053;-70
2024/01/04 07:04:15;;;;;;;6.50;3.40;;;;;;;21.49;56.19;98859.53;41288826;28;20041;-72
2024/01/04 07:24:16;;;;;;;6.38;3.42;;;;;;;21.51;56.54;98868.91;41384624;28;20052;-71
2024/01/04 07:44:16;;;;;;;5.55;3.42;;;;;;;21.55;56.23;98864.16;41363687;28;20042;-71
2024/01/04 08:04:18;;;;;;;8.88;4.25;;;;;;;21.72;55.74;98867.72;41358019;28;20077;-68
2024/01/04 08:24:19;;;;;;;7.63;5.40;;;;;;;21.87;55.65;98862.66;41371422;28;20056;-67
2024/01/04 08:44:19;;;;;;;15.75;6.93;;;;;;;21.93;55.79;98883.09;41349219;28;20049;-69
2024/01/04 09:04:20;;;;;;;10.55;8.18;;;;;;;21.92;55.57;98876.16;41406981;28;20042;-70
2024/01/04 09:24:23;;;;;;;9.45;8.20;;;;;;;21.98;55.19;98887.88;41391765;28;20077;-70
2024/01/04 09:44:24;;;;;;;28.73;10.52;;;;;;;22.02;54.17;98918.19;41433795;28;20056;-75
2024/01/04 10:04:25;;;;;;;25.23;9.43;;;;;;;22.00;54.74;98922.81;41333210;28;20069;-75
2024/01/04 10:24:26;;;;;;;16.27;8.02;;;;;;;21.89;54.93;98932.66;41403622;28;20413;-72
2024/01/04 10:44:27;;;;;;;15.07;8.73;;;;;;;21.84;55.29;98982.38;41396585;28;20046;-76
2024/01/04 11:04:29;;;;;;;16.65;9.35;;;;;;;21.93;55.42;98941.06;41398367;28;20093;-75
2024/01/04 11:25:06;;;;;;;14.43;8.95;;;;;;;21.91;55.47;98937.78;41447068;28;20043;-78
2024/01/04 11:45:18;;;;;;;16.17;10.15;;;;;;;21.89;55.17;98929.22;41457800;28;20097;-77
2024/01/04 12:05:20;;;;;;;14.85;10.82;;;;;;;22.11;55.90;98951.53;41413999;28;20496;-82
2024/01/04 12:25:20;;;;;;;14.68;10.50;;;;;;;22.07;55.00;98966.81;41385625;28;20046;-71
2024/01/04 12:45:22;;;;;;;17.38;10.70;;;;;;;22.04;55.00;98984.78;41355041;28;20058;-71
2024/01/04 13:05:23;;;;;;;24.75;11.40;;;;;;;22.29;54.15;98996.25;41339723;28;20054;-73
2024/01/04 13:25:23;;;;;;;20.42;10.85;;;;;;;22.34;54.26;99015.03;41386757;28;20133;-71
2024/01/04 13:45:23;;;;;;;24.02;10.40;;;;;;;22.35;54.05;99047.50;41357836;28;20519;-73
2024/01/04 14:05:24;;;;;;;25.88;9.80;;;;;;;22.30;53.19;99076.16;41384500;28;20046;-69
2024/01/04 14:25:26;;;;;;;21.05;8.77;;;;;;;22.84;52.42;99097.00;41376587;28;20057;-72
2024/01/04 14:45:28;;;;;;;16.58;7.82;;;;;;;22.11;54.55;99107.06;41379479;28;20053;-72
2024/01/04 15:05:30;;;;;;;16.77;7.80;;;;;;;21.99;54.99;99140.75;41376512;28;20112;-69
2024/01/04 15:25:31;;;;;;;16.15;6.65;;;;;;;21.88;54.98;99159.44;41356799;28;20422;-68
2024/01/04 15:45:32;;;;;;;12.52;3.40;;;;;;;21.51;48.51;99168.34;41366348;28;20046;-72
2024/01/04 16:05:32;;;;;;;4.45;2.90;;;;;;;21.58;50.13;99169.41;41369750;28;20307;-69
2024/01/04 16:25:33;;;;;;;5.43;2.83;;;;;;;21.58;51.63;99190.47;41350737;28;20826;-70
2024/01/04 16:45:35;;;;;;;5.63;2.63;;;;;;;22.01;50.23;99215.22;41348277;28;20416;-70
2024/01/04 17:05:36;;;;;;;6.88;2.60;;;;;;;22.03;51.76;99233.53;41348044;28;20078;-70
2024/01/04 17:25:37;;;;;;;5.45;3.08;;;;;;;22.09;51.96;99242.63;41361419;28;20046;-71
2024/01/04 17:45:37;;;;;;;5.00;3.00;;;;;;;22.12;52.41;99266.03;41401347;28;20532;-69
2024/01/04 18:05:39;;;;;;;25.38;13.27;;;;;;;22.27;52.96;99293.53;41388167;28;20046;-72
2024/01/04 18:25:40;;;;;;;78.57;55.40;;;;;;;22.36;54.18;99312.88;41381297;28;20123;-65
2024/01/04 18:45:42;;;;;;;78.05;62.25;;;;;;;22.61;56.20;99353.50;41358695;28;20100;-67
2024/01/04 19:05:42;;;;;;;77.20;60.95;;;;;;;22.65;56.21;99354.03;41344462;28;20050;-65
2024/01/04 19:25:43;;;;;;;79.13;56.63;;;;;;;22.48;56.30;99382.91;41351713;28;20546;-66
2024/01/04 19:45:43;;;;;;;58.67;44.45;;;;;;;22.46;55.49;99391.97;41338696;28;20046;-66
2024/01/04 20:05:45;;;;;;;48.85;37.20;;;;;;;22.33;55.06;99395.78;41343898;28;20489;-67
2024/01/04 20:25:45;;;;;;;37.83;30.23;;;;;;;22.26;54.93;99421.09;41337579;28;20073;-66
2024/01/04 20:45:46;;;;;;;36.42;26.52;;;;;;;22.21;54.42;99447.91;41336270;28;20075;-73
2024/01/04 21:05:47;;;;;;;28.15;20.40;;;;;;;21.97;54.19;99471.34;41332823;28;20050;-71
2024/01/04 21:25:47;;;;;;;19.45;14.23;;;;;;;21.34;53.90;99476.25;41332556;28;20048;-70
2024/01/04 21:45:47;;;;;;;18.80;11.57;;;;;;;21.62;54.14;99496.59;41274619;28;20042;-68
2024/01/04 22:05:48;;;;;;;14.43;9.43;;;;;;;21.51;54.54;99522.09;41287400;28;20654;-69
2024/01/04 22:25:49;;;;;;;12.40;8.30;;;;;;;21.54;54.91;99555.22;41382010;28;20041;-68
2024/01/04 22:45:49;;;;;;;12.75;7.60;;;;;;;21.48;55.13;99568.97;41381306;28;20116;-68
2024/01/04 23:05:50;;;;;;;9.15;6.05;;;;;;;21.44;55.18;99579.78;41371733;28;20081;-69
2024/01/04 23:25:50;;;;;;;6.65;5.03;;;;;;;21.45;54.86;99593.78;41368515;28;20045;-69
2024/01/04 23:45:51;;;;;;;7.07;4.60;;;;;;;21.39;55.38;99636.47;41372856;28;20042;-69
